Time;durP1;ratioP1;P1;durP2;ratioP2;P2;SDS_P1;SDS_P2;PMS_P1;PMS_P2;Temp;Humidity;BMP_temperature;BMP_pressure;BME280_temperature;BME280_humidity;BME280_pressure;Samples;Min_cycle;Max_cycle;Signal;HPM_P1;HPM_P2
2020/04/24 00:01:08;;;;;;;7.8;5.7;;;;;;;9.96;68.4248;937.4217;;;;
2020/04/24 00:03:39;;;;;;;6.6;5.5;;;;;;;9.94;68.01172;937.4311;;;;
2020/04/24 00:06:05;;;;;;;7.6;5.6;;;;;;;9.95;67.64844;937.4352;;;;
2020/04/24 00:09:07;;;;;;;7.3;5.4;;;;;;;9.91;67.66504;937.4348;;;;
2020/04/24 00:15:56;;;;;;;10.8;5.7;;;;;;;9.91;67.67676;937.3736;;;;
2020/04/24 00:18:28;;;;;;;7.4;5.5;;;;;;;9.83;68.00586;937.3577;;;;
2020/04/24 00:20:47;;;;;;;9.2;5.7;;;;;;;9.76;68.14258;937.413;;;;
2020/04/24 00:28:10;;;;;;;8;5.6;;;;;;;9.71;68.03223;937.3862;;;;
2020/04/24 00:30:30;;;;;;;6.3;5.6;;;;;;;9.71;68.04297;937.3814;;;;
2020/04/24 00:33:02;;;;;;;7.5;6.1;;;;;;;9.71;67.875;937.387;;;;
2020/04/24 00:35:31;;;;;;;7.4;5.9;;;;;;;9.64;68.05566;937.3823;;;;
2020/04/24 00:37:56;;;;;;;6.1;5.3;;;;;;;9.55;68.57715;937.307;;;;
2020/04/24 00:40:28;;;;;;;8;5.7;;;;;;;9.51;68.96973;937.3248;;;;
2020/04/24 00:42:55;;;;;;;9;6;;;;;;;9.45;69.1084;937.3035;;;;
2020/04/24 00:45:24;;;;;;;7.3;5.7;;;;;;;9.41;69.2959;937.3083;;;;
2020/04/24 00:47:52;;;;;;;11.4;6.5;;;;;;;9.34;69.8291;937.2891;;;;
2020/04/24 00:50:17;;;;;;;8.1;5.8;;;;;;;9.35;70.00293;937.2917;;;;
2020/04/24 00:52:43;;;;;;;7.3;6.2;;;;;;;9.43;70.07422;937.3232;;;;
2020/04/24 00:55:13;;;;;;;10.1;6.1;;;;;;;9.52;69.04004;937.3361;;;;
2020/04/24 00:57:42;;;;;;;10;5.9;;;;;;;9.56;69.0127;937.2937;;;;
2020/04/24 01:00:07;;;;;;;8.8;6.3;;;;;;;9.5;69.10547;937.316;;;;
2020/04/24 01:02:38;;;;;;;8.7;6.1;;;;;;;9.53;69.03027;937.3538;;;;
2020/04/24 01:05:12;;;;;;;7;5.6;;;;;;;9.51;69.06152;937.3011;;;;
2020/04/24 01:07:37;;;;;;;8;5.6;;;;;;;9.48;69.1582;937.3531;;;;
2020/04/24 01:10:19;;;;;;;7.7;6;;;;;;;9.48;69.38574;937.2498;;;;
2020/04/24 01:12:49;;;;;;;7.9;5.8;;;;;;;9.48;69.2168;937.3284;;;;
2020/04/24 01:15:19;;;;;;;8.2;5.9;;;;;;;9.35;69.58203;937.3162;;;;
2020/04/24 01:17:50;;;;;;;7.7;6.2;;;;;;;9.38;69.41699;937.3731;;;;
2020/04/24 01:20:19;;;;;;;7.3;5.9;;;;;;;9.23;70.90625;937.3116;;;;
2020/04/24 01:22:47;;;;;;;8.7;5.9;;;;;;;9.2;70.95703;937.3761;;;;
2020/04/24 01:25:30;;;;;;;9;6;;;;;;;9.22;70.0625;937.3489;;;;
2020/04/24 01:27:42;;;;;;;7.9;6.3;;;;;;;9.21;69.88965;937.3003;;;;
2020/04/24 01:30:11;;;;;;;9.1;5.8;;;;;;;9.17;70.08789;937.2145;;;;
2020/04/24 01:32:36;;;;;;;8.7;6.8;;;;;;;9.07;71.38965;937.2997;;;;
2020/04/24 01:35:01;;;;;;;7.9;6.3;;;;;;;9.07;71.09668;937.3006;;;;
2020/04/24 01:37:26;;;;;;;8.1;6.5;;;;;;;9.08;70.59668;937.1973;;;;
2020/04/24 01:39:53;;;;;;;8.2;6.2;;;;;;;9.04;70.36133;937.2747;;;;
2020/04/24 01:42:23;;;;;;;7.9;5.8;;;;;;;8.96;70.65527;937.3106;;;;
2020/04/24 01:44:48;;;;;;;6.4;5.6;;;;;;;8.92;70.80859;937.2822;;;;
2020/04/24 01:47:13;;;;;;;8.8;5.6;;;;;;;8.85;71.30957;937.2695;;;;
2020/04/24 01:49:40;;;;;;;7.6;6;;;;;;;8.77;71.5127;937.1997;;;;
2020/04/24 01:52:07;;;;;;;10.8;6.3;;;;;;;8.84;71.34277;937.2153;;;;
2020/04/24 01:54:36;;;;;;;7.3;5.8;;;;;;;8.79;71.36816;937.2286;;;;
2020/04/24 01:57:02;;;;;;;10.5;7;;;;;;;8.69;72.30762;937.1192;;;;
2020/04/24 01:59:29;;;;;;;10.4;6.2;;;;;;;8.78;71.82129;937.1038;;;;
2020/04/24 02:01:55;;;;;;;9.2;6;;;;;;;8.75;71.57617;937.1344;;;;
2020/04/24 02:04:25;;;;;;;7.9;5.8;;;;;;;8.69;71.68066;937.1414;;;;
2020/04/24 02:06:50;;;;;;;7.2;6;;;;;;;8.68;71.67773;937.1372;;;;
2020/04/24 02:09:21;;;;;;;10.7;6.4;;;;;;;8.72;71.33301;937.1942;;;;
2020/04/24 02:11:46;;;;;;;7.7;6;;;;;;;8.62;71.66895;937.1817;;;;
2020/04/24 02:14:15;;;;;;;10.2;6.5;;;;;;;8.58;71.94727;937.1911;;;;
2020/04/24 02:16:40;;;;;;;12.4;6.6;;;;;;;8.57;72.43457;937.0703;;;;
2020/04/24 02:19:09;;;;;;;8.6;6.3;;;;;;;8.56;71.9209;937.1345;;;;
2020/04/24 02:21:35;;;;;;;8.2;6.3;;;;;;;8.51;71.94824;937.1409;;;;
2020/04/24 02:24:02;;;;;;;10.1;6.9;;;;;;;8.46;72.04004;937.1519;;;;
2020/04/24 02:26:30;;;;;;;7.6;6.2;;;;;;;8.41;72.24805;937.1242;;;;
2020/04/24 02:29:04;;;;;;;10.8;6.3;;;;;;;8.39;72.30176;937.1426;;;;
2020/04/24 02:31:37;;;;;;;8.7;6.4;;;;;;;8.36;72.29688;937.1764;;;;
2020/04/24 02:34:04;;;;;;;10.3;6.4;;;;;;;8.46;71.87109;937.1639;;;;
2020/04/24 02:36:29;;;;;;;9.9;6;;;;;;;8.48;71.56543;937.057;;;;
2020/04/24 02:39:04;;;;;;;8.2;6.1;;;;;;;8.43;71.76074;937.0769;;;;
2020/04/24 02:41:30;;;;;;;12.5;6.5;;;;;;;8.46;71.54004;937.1122;;;;
2020/04/24 02:44:21;;;;;;;8.8;6;;;;;;;8.35;72.02148;937.0977;;;;
2020/04/24 02:47:02;;;;;;;8.7;6.2;;;;;;;8.31;72.11914;937.0745;;;;
2020/04/24 02:48:54;;;;;;;9.1;6.9;;;;;;;8.2;72.51953;937.097;;;;
2020/04/24 02:51:22;;;;;;;8.6;6.4;;;;;;;8.23;72.53516;937.124;;;;
2020/04/24 02:53:47;;;;;;;7.9;6.1;;;;;;;8.28;72.42969;937.0762;;;;
2020/04/24 02:56:16;;;;;;;10.6;6.5;;;;;;;8.22;72.50977;937.0992;;;;
2020/04/24 02:58:42;;;;;;;9.6;6.5;;;;;;;8.2;72.64453;937.0701;;;;
2020/04/24 03:01:11;;;;;;;9;7;;;;;;;8.07;74.2793;937.1155;;;;
2020/04/24 03:03:36;;;;;;;8.4;7.4;;;;;;;8.01;74.89258;936.9666;;;;
2020/04/24 03:06:08;;;;;;;9;7.1;;;;;;;7.99;74.56055;937.0535;;;;
2020/04/24 03:08:33;;;;;;;10.5;6.8;;;;;;;8.11;73.68555;936.9758;;;;
2020/04/24 03:11:03;;;;;;;7.9;6;;;;;;;8.11;73.37891;937.017;;;;
2020/04/24 03:13:35;;;;;;;9.3;6.6;;;;;;;8.03;73.5791;936.9736;;;;
2020/04/24 03:16:00;;;;;;;12;6.9;;;;;;;8.07;73.47363;936.9799;;;;
2020/04/24 03:18:29;;;;;;;8.2;6.4;;;;;;;8.05;73.5498;936.963;;;;
2020/04/24 03:21:03;;;;;;;12;6.8;;;;;;;7.89;74.06641;936.9655;;;;
2020/04/24 03:23:34;;;;;;;8.8;6.2;;;;;;;7.93;73.83594;937.0162;;;;
2020/04/24 03:26:08;;;;;;;8;6.1;;;;;;;7.91;73.78711;936.985;;;;
2020/04/24 03:28:36;;;;;;;13;6.2;;;;;;;7.99;73.61816;937.0068;;;;
2020/04/24 03:31:01;;;;;;;9.1;6.6;;;;;;;7.87;73.97363;936.9771;;;;
2020/04/24 03:33:31;;;;;;;9.8;6.3;;;;;;;7.81;74.46094;936.9367;;;;
2020/04/24 03:36:04;;;;;;;9.2;6.5;;;;;;;7.81;74.26758;936.9078;;;;
2020/04/24 03:38:32;;;;;;;12.7;6.5;;;;;;;7.68;74.99512;936.9226;;;;
2020/04/24 03:41:02;;;;;;;11;6.7;;;;;;;7.73;74.82227;936.9182;;;;
2020/04/24 03:43:32;;;;;;;15.3;7.3;;;;;;;7.69;74.75684;936.9481;;;;
2020/04/24 03:46:00;;;;;;;12.9;6.6;;;;;;;7.67;75.1748;936.9581;;;;
2020/04/24 03:48:28;;;;;;;16.9;7.5;;;;;;;7.63;75.24805;936.9044;;;;
2020/04/24 03:50:53;;;;;;;13.6;7.6;;;;;;;7.7;74.92969;936.9428;;;;
2020/04/24 03:53:22;;;;;;;11.9;7.7;;;;;;;7.78;74.47852;936.9894;;;;
2020/04/24 03:55:47;;;;;;;8.4;6.6;;;;;;;7.68;74.84766;936.9733;;;;
2020/04/24 03:58:16;;;;;;;11.9;7.4;;;;;;;7.63;75.37109;937.0033;;;;
2020/04/24 04:02:33;;;;;;;15;8;;;;;;;7.41;76.25098;936.8817;;;;
2020/04/24 04:04:58;;;;;;;13.4;7.8;;;;;;;7.38;76.34668;936.9576;;;;
2020/04/24 04:07:23;;;;;;;15.4;9;;;;;;;7.42;75.88965;936.9136;;;;
2020/04/24 04:09:48;;;;;;;44.4;27.3;;;;;;;7.38;76.16504;936.9434;;;;
2020/04/24 04:12:13;;;;;;;69.2;31;;;;;;;7.13;76.9248;936.8717;;;;
2020/04/24 04:14:39;;;;;;;54.1;28.7;;;;;;;7.18;77.01367;936.9662;;;;
2020/04/24 04:17:09;;;;;;;40.1;24.5;;;;;;;7.21;76.82617;936.9263;;;;
2020/04/24 04:19:34;;;;;;;29.6;18.4;;;;;;;7.23;76.67383;936.9327;;;;
2020/04/24 04:22:01;;;;;;;18.4;11.8;;;;;;;7.18;76.75488;936.8864;;;;
2020/04/24 04:24:26;;;;;;;16.2;9.9;;;;;;;7.33;76.22559;936.9275;;;;
2020/04/24 04:26:51;;;;;;;14.6;8.8;;;;;;;7.27;76.125;936.92;;;;
2020/04/24 04:29:17;;;;;;;18.3;9;;;;;;;7.22;76.56836;936.9023;;;;
2020/04/24 04:31:43;;;;;;;19.4;8.4;;;;;;;7.31;76.14258;936.8764;;;;
2020/04/24 04:34:11;;;;;;;14.4;7.4;;;;;;;7.29;76.16211;936.9299;;;;
2020/04/24 04:36:37;;;;;;;12.7;7.5;;;;;;;7.08;77.18848;936.8621;;;;
2020/04/24 04:39:02;;;;;;;14.8;7.3;;;;;;;7.2;76.90527;936.8669;;;;
2020/04/24 04:41:29;;;;;;;17.4;7.9;;;;;;;7.23;76.98926;936.8772;;;;
2020/04/24 04:43:55;;;;;;;17;7.6;;;;;;;7.41;76.18262;936.8754;;;;
2020/04/24 04:46:21;;;;;;;19;8.8;;;;;;;7.54;75.50391;936.8993;;;;
2020/04/24 04:48:46;;;;;;;15.8;8.7;;;;;;;7.64;74.9541;936.9006;;;;
2020/04/24 04:51:13;;;;;;;15.5;8.4;;;;;;;7.74;74.28906;936.9197;;;;
2020/04/24 04:53:38;;;;;;;12.5;7.6;;;;;;;7.56;74.73633;936.9242;;;;
2020/04/24 04:56:05;;;;;;;15.6;7.5;;;;;;;7.5;75.26953;936.9048;;;;
2020/04/24 04:58:44;;;;;;;13.4;7.1;;;;;;;7.5;75.21289;936.9578;;;;
2020/04/24 05:01:33;;;;;;;12.5;6.9;;;;;;;7.54;75.20801;936.9277;;;;
2020/04/24 05:03:30;;;;;;;11;6.9;;;;;;;7.63;74.92969;936.9504;;;;
2020/04/24 05:05:55;;;;;;;19.9;7.2;;;;;;;7.71;74.74023;936.9288;;;;
2020/04/24 05:08:21;;;;;;;13.7;6.4;;;;;;;7.73;74.78906;936.9324;;;;
2020/04/24 05:10:46;;;;;;;15.4;6.6;;;;;;;7.68;75.14258;936.9108;;;;
2020/04/24 05:13:13;;;;;;;15.8;7.1;;;;;;;7.87;74.73242;936.9667;;;;
2020/04/24 05:15:38;;;;;;;13.8;6.5;;;;;;;8.05;74.65234;936.9352;;;;
2020/04/24 05:18:06;;;;;;;14.5;6.5;;;;;;;8.27;73.37109;936.9684;;;;
2020/04/24 05:20:31;;;;;;;14.3;7.4;;;;;;;8.37;72.69434;936.948;;;;
2020/04/24 05:22:57;;;;;;;13.3;6.4;;;;;;;8.39;72.4834;936.9;;;;
2020/04/24 05:25:23;;;;;;;13.8;6.5;;;;;;;8.35;72.76172;936.9771;;;;
2020/04/24 05:27:50;;;;;;;21.4;8.4;;;;;;;8.58;72.41113;936.9275;;;;
2020/04/24 05:30:15;;;;;;;20;7.7;;;;;;;9.35;70.80957;936.9475;;;;
2020/04/24 05:32:41;;;;;;;14.1;7.1;;;;;;;11.38;63.58301;936.8464;;;;
2020/04/24 05:35:06;;;;;;;13.1;6.9;;;;;;;13.21;57.34863;936.9224;;;;
2020/04/24 05:37:33;;;;;;;8.4;4.7;;;;;;;14.43;52.41797;936.8684;;;;
2020/04/24 05:39:58;;;;;;;12.1;4.8;;;;;;;15.46;49.83984;936.8433;;;;
2020/04/24 05:42:25;;;;;;;12.1;4.6;;;;;;;16.38;46.7627;936.7842;;;;
2020/04/24 05:44:51;;;;;;;7.3;4.2;;;;;;;17.04;44.87402;936.8658;;;;
2020/04/24 05:47:18;;;;;;;10.2;4.4;;;;;;;17.69;43.44238;936.8161;;;;
2020/04/24 05:49:43;;;;;;;8.3;4.2;;;;;;;18.18;42.06152;936.6685;;;;
2020/04/24 05:52:10;;;;;;;12.1;5;;;;;;;18.34;42.08887;936.6837;;;;
2020/04/24 05:54:35;;;;;;;16;4.7;;;;;;;18.41;41.74707;936.6643;;;;
2020/04/24 05:57:01;;;;;;;8.6;4.4;;;;;;;18.08;41.70313;936.6312;;;;
2020/04/24 05:59:26;;;;;;;12.7;4.7;;;;;;;17.99;42.25195;936.6942;;;;
2020/04/24 06:01:53;;;;;;;15.6;4.7;;;;;;;17.92;42.9668;936.6535;;;;
2020/04/24 06:04:18;;;;;;;10;5.1;;;;;;;18.28;40.77051;936.6147;;;;
2020/04/24 06:06:46;;;;;;;11.8;6;;;;;;;18.82;39.69043;936.5932;;;;
2020/04/24 06:11:46;;;;;;;8.9;5.2;;;;;;;17.82;41.13379;936.6219;;;;
2020/04/24 06:14:08;;;;;;;6.2;3.8;;;;;;;16.77;43.6416;936.5666;;;;
2020/04/24 06:16:37;;;;;;;7.7;3.6;;;;;;;17.65;41.68652;936.5081;;;;
2020/04/24 06:23:58;;;;;;;5.5;3.3;;;;;;;19.21;38.29395;936.3997;;;;
2020/04/24 06:26:24;;;;;;;9.4;3.5;;;;;;;18.51;39.59375;936.3292;;;;
2020/04/24 06:29:13;;;;;;;7.8;3.3;;;;;;;19.13;39.03223;936.329;;;;
2020/04/24 06:34:38;;;;;;;7.3;3.3;;;;;;;21.9;33.74609;936.2756;;;;
2020/04/24 06:41:23;;;;;;;7.5;3.2;;;;;;;22.7;33.29102;936.1834;;;;
2020/04/24 06:43:45;;;;;;;7.8;3.4;;;;;;;23.31;32.30273;936.1953;;;;
2020/04/24 06:46:10;;;;;;;9.3;3.1;;;;;;;23.4;29.89746;936.0877;;;;
2020/04/24 06:48:37;;;;;;;5.1;2.8;;;;;;;23.74;29.30957;936.1133;;;;
2020/04/24 06:51:14;;;;;;;5.2;2.9;;;;;;;22.89;31.14355;936.0201;;;;
2020/04/24 06:53:53;;;;;;;8.4;3.5;;;;;;;23.57;31.00293;936.028;;;;
2020/04/24 07:00:59;;;;;;;9;3;;;;;;;23.09;30.67676;935.9796;;;;
2020/04/24 07:03:27;;;;;;;8.4;2.8;;;;;;;21.96;31.54785;936.0623;;;;
2020/04/24 07:08:30;;;;;;;7.9;2.7;;;;;;;21.98;31.86621;935.9844;;;;
2020/04/24 07:11:22;;;;;;;7.3;2.9;;;;;;;23.34;31.95117;935.9464;;;;
2020/04/24 07:15:52;;;;;;;5.5;3.1;;;;;;;25.31;27.68848;935.9111;;;;
2020/04/24 07:18:18;;;;;;;6;2.6;;;;;;;26.02;25.99414;935.8289;;;;
2020/04/24 07:23:09;;;;;;;4.9;2.6;;;;;;;27.4;23.96191;935.7195;;;;
2020/04/24 07:31:37;;;;;;;4.6;2.5;;;;;;;29;22.94043;935.6537;;;;
2020/04/24 07:33:01;;;;;;;4.7;2.4;;;;;;;29.5;22.71582;935.5881;;;;
2020/04/24 07:42:52;;;;;;;4.1;2.2;;;;;;;29.97;21.33203;935.5536;;;;
2020/04/24 07:45:28;;;;;;;4.9;2.3;;;;;;;31.98;20.25195;935.4886;;;;
2020/04/24 07:47:54;;;;;;;6.4;2.3;;;;;;;33.38;18.7998;935.5703;;;;
2020/04/24 07:52:50;;;;;;;4.7;1.9;;;;;;;34.26;17.13867;935.4816;;;;
2020/04/24 07:57:52;;;;;;;7.9;2;;;;;;;33.93;18.07617;935.4238;;;;
2020/04/24 08:04:59;;;;;;;4.2;2;;;;;;;35.36;18.12109;935.4082;;;;
2020/04/24 08:07:22;;;;;;;4.7;2.1;;;;;;;36.4;16.39551;935.3105;;;;
2020/04/24 08:09:57;;;;;;;7.2;2.3;;;;;;;36.28;16.68164;935.2534;;;;
2020/04/24 08:12:25;;;;;;;7.3;2.4;;;;;;;35.61;16.63281;935.271;;;;
2020/04/24 08:14:50;;;;;;;8.9;2.4;;;;;;;32.95;15.66016;935.1995;;;;
2020/04/24 08:17:17;;;;;;;11.6;2.3;;;;;;;31.62;15.92578;935.1598;;;;
2020/04/24 08:19:48;;;;;;;6.6;2.3;;;;;;;29.98;17.44238;935.2067;;;;
2020/04/24 08:22:12;;;;;;;6.3;2.3;;;;;;;29.56;18.03418;935.2147;;;;
2020/04/24 08:24:44;;;;;;;13.4;10;;;;;;;28.85;18.44629;935.1178;;;;
2020/04/24 08:27:10;;;;;;;14.7;9.9;;;;;;;28.97;18.57031;935.1776;;;;
2020/04/24 08:29:37;;;;;;;33.7;27.7;;;;;;;28.25;18.44531;935.0868;;;;
2020/04/24 08:32:10;;;;;;;75.4;67.9;;;;;;;28.95;17.83105;935.0517;;;;
2020/04/24 08:34:46;;;;;;;12.7;10.2;;;;;;;29.31;17.27441;935.0376;;;;
2020/04/24 08:37:22;;;;;;;6.1;2.4;;;;;;;27.26;20.19531;934.93;;;;
2020/04/24 08:39:49;;;;;;;6.3;2.1;;;;;;;27.98;18.36328;934.9839;;;;
2020/04/24 08:42:21;;;;;;;3.9;2;;;;;;;26.88;19.17188;934.965;;;;
2020/04/24 08:44:50;;;;;;;5.8;2.5;;;;;;;26.37;19.16211;935.007;;;;
2020/04/24 08:47:26;;;;;;;7.1;2.3;;;;;;;26.14;20.16895;934.9945;;;;
2020/04/24 08:49:57;;;;;;;6.5;2.5;;;;;;;25.31;21.28906;934.9313;;;;
2020/04/24 08:52:22;;;;;;;6.8;2.5;;;;;;;25.97;20.85938;934.9178;;;;
2020/04/24 08:54:47;;;;;;;6.4;2.4;;;;;;;26.5;20.52832;934.8409;;;;
2020/04/24 08:57:16;;;;;;;6.7;2.4;;;;;;;26.16;21.09277;934.8491;;;;
2020/04/24 08:59:51;;;;;;;5.7;2.3;;;;;;;25.9;20.13477;934.9455;;;;
2020/04/24 09:02:16;;;;;;;7.4;2.4;;;;;;;25.59;21.01855;934.8858;;;;
2020/04/24 09:04:41;;;;;;;5.8;2.1;;;;;;;25.4;20.66699;934.8965;;;;
2020/04/24 09:07:10;;;;;;;3.7;2.1;;;;;;;25.66;21.29395;934.8552;;;;
2020/04/24 09:09:40;;;;;;;5;2.2;;;;;;;24.87;21.15039;934.8661;;;;
2020/04/24 09:12:07;;;;;;;5.3;2.2;;;;;;;24.69;20.94141;934.8195;;;;
2020/04/24 09:14:35;;;;;;;7.2;2.5;;;;;;;24.33;21.67871;934.8306;;;;
2020/04/24 09:17:02;;;;;;;5.3;2.2;;;;;;;24.07;22.18457;934.7432;;;;
2020/04/24 09:19:38;;;;;;;6.8;2.4;;;;;;;23.95;22.14258;934.6481;;;;
2020/04/24 09:22:08;;;;;;;7;2.4;;;;;;;24.03;22.99414;934.7747;;;;
2020/04/24 09:24:33;;;;;;;4.4;2.4;;;;;;;23.16;23.23145;934.7791;;;;
2020/04/24 09:26:59;;;;;;;8.3;2.6;;;;;;;22.29;24.49902;934.7209;;;;
2020/04/24 09:29:24;;;;;;;4.8;2.5;;;;;;;22.41;24.24805;934.7305;;;;
2020/04/24 09:31:55;;;;;;;5.5;2.2;;;;;;;22.58;24.02246;934.6666;;;;
2020/04/24 09:34:20;;;;;;;6.5;2.2;;;;;;;23.48;24.38867;934.7106;;;;
2020/04/24 09:36:53;;;;;;;7.8;2.1;;;;;;;24.16;22.98926;934.6511;;;;
2020/04/24 09:39:28;;;;;;;4.5;2.2;;;;;;;24.36;23.41211;934.485;;;;
2020/04/24 09:41:59;;;;;;;6;2;;;;;;;24.86;21.62109;934.5708;;;;
2020/04/24 09:44:29;;;;;;;7.9;2.3;;;;;;;25.25;21.4873;934.5768;;;;
2020/04/24 09:47:06;;;;;;;8.2;2.4;;;;;;;25.2;21.90918;934.5694;;;;
2020/04/24 09:49:35;;;;;;;10.4;2.3;;;;;;;25.15;22.2373;934.5416;;;;
2020/04/24 09:52:01;;;;;;;4.7;2.2;;;;;;;24.64;21.26953;934.5745;;;;
2020/04/24 09:54:40;;;;;;;4.5;2.2;;;;;;;24.52;21.33398;934.5742;;;;
2020/04/24 09:57:17;;;;;;;4.7;2.1;;;;;;;24.56;21.44141;934.551;;;;
2020/04/24 09:59:50;;;;;;;6.2;2.5;;;;;;;24.62;21.30371;934.5541;;;;
2020/04/24 10:02:31;;;;;;;9.6;2.4;;;;;;;24.15;21.89355;934.4637;;;;
2020/04/24 10:05:54;;;;;;;5.2;2.2;;;;;;;23.53;22.52148;934.4117;;;;
2020/04/24 10:10:11;;;;;;;4;2;;;;;;;25.32;20.50977;934.3441;;;;
2020/04/24 10:12:46;;;;;;;7.2;2.2;;;;;;;25.74;19.9502;934.3666;;;;
2020/04/24 10:15:10;;;;;;;4.7;2.2;;;;;;;25.38;21.44531;934.2847;;;;
2020/04/24 10:17:26;;;;;;;7.2;2.3;;;;;;;25.01;23.05664;934.3045;;;;
2020/04/24 10:19:59;;;;;;;2.7;2.1;;;;;;;24.32;21.61816;934.3055;;;;
2020/04/24 10:22:21;;;;;;;7;2.4;;;;;;;24.43;21.65918;934.3108;;;;
2020/04/24 10:24:52;;;;;;;4.5;2.1;;;;;;;24.68;20.92871;934.269;;;;
2020/04/24 10:27:12;;;;;;;6;2.1;;;;;;;25.02;20.41406;934.2715;;;;
2020/04/24 10:29:43;;;;;;;6.3;2;;;;;;;25.26;19.8457;934.216;;;;
2020/04/24 10:32:23;;;;;;;3.9;2.2;;;;;;;24.76;21.92383;934.1532;;;;
2020/04/24 10:34:51;;;;;;;6.3;2.4;;;;;;;24.69;22.60352;934.2025;;;;
2020/04/24 10:37:17;;;;;;;6.7;2.1;;;;;;;24.95;22.25098;934.202;;;;
2020/04/24 10:39:44;;;;;;;2.4;1.7;;;;;;;24.76;21.55762;934.1418;;;;
2020/04/24 10:42:13;;;;;;;3.4;2.1;;;;;;;24.13;21.31543;934.1099;;;;
2020/04/24 10:44:38;;;;;;;5.8;2.2;;;;;;;23.84;22.01953;934.1124;;;;
2020/04/24 10:47:05;;;;;;;3.3;2;;;;;;;23.75;22.01465;934.149;;;;
2020/04/24 10:49:33;;;;;;;3.1;2.1;;;;;;;23.47;22.17773;934.1106;;;;
2020/04/24 10:52:06;;;;;;;3.9;2.1;;;;;;;23.33;24.56934;934.0784;;;;
2020/04/24 10:54:37;;;;;;;8.3;2.1;;;;;;;23.92;23.3418;934.0417;;;;
2020/04/24 10:57:09;;;;;;;6.1;2.1;;;;;;;23.87;23.55078;933.9758;;;;
2020/04/24 10:59:34;;;;;;;7.8;1.9;;;;;;;24.42;23.00195;933.9805;;;;
2020/04/24 11:02:06;;;;;;;4.2;1.8;;;;;;;24.76;23.95117;933.9864;;;;
2020/04/24 11:04:41;;;;;;;4.2;1.9;;;;;;;25.02;24.44922;933.8706;;;;
2020/04/24 11:07:07;;;;;;;5.6;2;;;;;;;25.35;20.53516;933.8334;;;;
2020/04/24 11:09:34;;;;;;;6.7;2.2;;;;;;;25.54;21.66602;933.8055;;;;
2020/04/24 11:12:03;;;;;;;4.9;2.3;;;;;;;25.89;20.55957;933.8032;;;;
2020/04/24 11:14:28;;;;;;;7.2;2.2;;;;;;;25.89;21.24609;933.7957;;;;
2020/04/24 11:16:53;;;;;;;3.8;1.9;;;;;;;26.54;21.0752;933.6682;;;;
2020/04/24 11:19:29;;;;;;;5.3;1.9;;;;;;;26.6;20.28516;933.5631;;;;
2020/04/24 11:21:55;;;;;;;5.4;1.8;;;;;;;26.34;20.0127;933.6404;;;;
2020/04/24 11:24:29;;;;;;;4.1;1.8;;;;;;;27.31;19.96094;933.5793;;;;
2020/04/24 11:27:02;;;;;;;2.9;1.6;;;;;;;28.33;18.25879;933.6355;;;;
2020/04/24 11:29:34;;;;;;;3.4;1.6;;;;;;;27.7;19.00488;933.5673;;;;
2020/04/24 11:32:04;;;;;;;3.8;1.7;;;;;;;26.74;19.5332;933.4529;;;;
2020/04/24 11:34:41;;;;;;;4.8;1.8;;;;;;;27.17;19.30273;933.5344;;;;
2020/04/24 11:37:26;;;;;;;6.5;1.9;;;;;;;25.36;20.48828;933.4948;;;;
2020/04/24 11:39:32;;;;;;;3;1.7;;;;;;;25.23;20.24609;933.4261;;;;
2020/04/24 11:41:57;;;;;;;4.3;1.6;;;;;;;24.43;21.14063;933.4168;;;;
2020/04/24 11:44:29;;;;;;;5.8;1.8;;;;;;;24.62;21.30371;933.3606;;;;
2020/04/24 11:47:00;;;;;;;3.4;2.1;;;;;;;24.88;24.20508;933.2888;;;;
2020/04/24 11:49:29;;;;;;;7.2;2;;;;;;;26.04;20.17676;933.2878;;;;
2020/04/24 11:52:02;;;;;;;3.8;1.9;;;;;;;25.85;20.4043;933.3272;;;;
2020/04/24 11:54:31;;;;;;;6;1.8;;;;;;;26.12;20.36914;933.2913;;;;
2020/04/24 11:57:02;;;;;;;4.7;1.6;;;;;;;25.93;20.04102;933.264;;;;
2020/04/24 11:59:29;;;;;;;3.3;1.8;;;;;;;25.77;19.7627;933.2114;;;;
2020/04/24 12:02:00;;;;;;;4.5;1.6;;;;;;;25.59;22.70898;933.2455;;;;
2020/04/24 12:04:27;;;;;;;5;1.8;;;;;;;25.1;20.3584;933.1749;;;;
2020/04/24 12:06:52;;;;;;;5.1;1.9;;;;;;;25.04;20.35547;933.2578;;;;
2020/04/24 12:09:18;;;;;;;9.7;2.4;;;;;;;24.89;21.0332;933.2123;;;;
2020/04/24 12:11:49;;;;;;;6.3;1.9;;;;;;;24.85;20.21777;933.1931;;;;
2020/04/24 12:14:15;;;;;;;5;1.9;;;;;;;25.29;21.04004;933.1855;;;;
2020/04/24 12:16:45;;;;;;;3.6;1.7;;;;;;;26.01;20.69531;933.1277;;;;
2020/04/24 12:19:12;;;;;;;3.5;1.8;;;;;;;26.12;19.64746;933.1717;;;;
2020/04/24 12:21:38;;;;;;;4.3;1.6;;;;;;;25.75;20.08105;933.1083;;;;
2020/04/24 12:24:11;;;;;;;2.6;1.5;;;;;;;25.54;20.80371;933.0798;;;;
2020/04/24 12:26:43;;;;;;;3.9;1.7;;;;;;;25.72;19.85449;933.1019;;;;
2020/04/24 12:29:11;;;;;;;6.9;1.6;;;;;;;25.36;20.13379;933.0425;;;;
2020/04/24 12:31:38;;;;;;;2.3;1.6;;;;;;;25.38;20.98535;933.059;;;;
2020/04/24 12:34:13;;;;;;;3.7;1.6;;;;;;;25.51;21.72363;933.0139;;;;
2020/04/24 12:36:39;;;;;;;4.2;1.6;;;;;;;25.17;20.2793;932.998;;;;
2020/04/24 12:39:09;;;;;;;6.1;1.9;;;;;;;25.32;23.17871;932.9897;;;;
2020/04/24 12:41:35;;;;;;;2.3;1.5;;;;;;;25.73;21.58008;932.9775;;;;
2020/04/24 12:44:13;;;;;;;5.6;1.8;;;;;;;26.32;22.69824;932.931;;;;
2020/04/24 12:46:47;;;;;;;4.8;1.8;;;;;;;26.06;20.09473;932.887;;;;
2020/04/24 12:49:12;;;;;;;4.6;1.7;;;;;;;25.47;21.0127;932.8098;;;;
2020/04/24 12:51:37;;;;;;;4.3;1.7;;;;;;;25.39;21.06836;932.8148;;;;
2020/04/24 12:54:08;;;;;;;3.3;1.7;;;;;;;25.63;20.16992;932.7724;;;;
2020/04/24 12:56:36;;;;;;;4.4;1.7;;;;;;;25.52;21.55859;932.7743;;;;
2020/04/24 12:59:08;;;;;;;5.9;1.6;;;;;;;25.37;21.69336;932.7188;;;;
2020/04/24 13:01:35;;;;;;;3.9;1.5;;;;;;;25.39;23.14648;932.762;;;;
2020/04/24 13:04:09;;;;;;;5.9;1.7;;;;;;;25.49;20.26953;932.7213;;;;
2020/04/24 13:06:39;;;;;;;3.7;1.7;;;;;;;25.27;19.28027;932.675;;;;
2020/04/24 13:09:04;;;;;;;4.8;1.6;;;;;;;25.34;21.19629;932.7003;;;;
2020/04/24 13:11:36;;;;;;;5.2;1.6;;;;;;;25.36;21.65723;932.6594;;;;
2020/04/24 13:14:07;;;;;;;9.9;1.9;;;;;;;25.07;20.59277;932.6624;;;;
2020/04/24 13:16:32;;;;;;;4.4;1.6;;;;;;;24.29;20.76855;932.6124;;;;
2020/04/24 13:18:59;;;;;;;4.9;1.7;;;;;;;24.36;22.48047;932.6414;;;;
2020/04/24 13:21:31;;;;;;;5.3;2;;;;;;;24.89;22.03613;932.5992;;;;
2020/04/24 13:23:56;;;;;;;4.2;1.8;;;;;;;24.89;21.32813;932.582;;;;
2020/04/24 13:26:22;;;;;;;4;1.8;;;;;;;25.08;22.35156;932.5396;;;;
2020/04/24 13:28:59;;;;;;;4.6;1.9;;;;;;;24.87;20.91406;932.4339;;;;
2020/04/24 13:31:26;;;;;;;4.4;1.7;;;;;;;24.95;21.2959;932.4694;;;;
2020/04/24 13:33:55;;;;;;;5.3;1.8;;;;;;;24.67;21.3291;932.4476;;;;
2020/04/24 13:36:20;;;;;;;4.5;1.9;;;;;;;24.76;21.19238;932.4615;;;;
2020/04/24 13:38:45;;;;;;;6.7;2;;;;;;;24.13;21.83301;932.4241;;;;
2020/04/24 13:41:15;;;;;;;4.4;1.5;;;;;;;24.05;24.05469;932.3666;;;;
2020/04/24 13:43:42;;;;;;;4.5;1.6;;;;;;;24.48;24.21973;932.3602;;;;
2020/04/24 13:46:07;;;;;;;5.1;2;;;;;;;24.05;21.8877;932.3912;;;;
2020/04/24 13:48:42;;;;;;;2.2;1.6;;;;;;;24.25;24.10059;932.3427;;;;
2020/04/24 13:51:10;;;;;;;3.1;1.6;;;;;;;24.22;22.7793;932.33;;;;
2020/04/24 13:53:47;;;;;;;5.9;1.8;;;;;;;23.89;22.68066;932.39;;;;
2020/04/24 13:56:12;;;;;;;6.5;1.8;;;;;;;24.13;23.41113;932.3223;;;;
2020/04/24 13:58:40;;;;;;;2.5;1.5;;;;;;;24;21.81543;932.3057;;;;
2020/04/24 14:01:06;;;;;;;5.5;1.8;;;;;;;24;21.33203;932.2917;;;;
2020/04/24 14:03:31;;;;;;;2.9;1.8;;;;;;;24.05;22.40625;932.2416;;;;
2020/04/24 14:06:05;;;;;;;5.8;1.6;;;;;;;24.3;22.87793;932.2876;;;;
2020/04/24 14:08:43;;;;;;;5.4;1.5;;;;;;;24.73;22.93555;932.3063;;;;
2020/04/24 14:11:15;;;;;;;3.9;1.7;;;;;;;24.75;23.00781;932.3722;;;;
2020/04/24 14:13:42;;;;;;;2.3;1.7;;;;;;;24.38;22.83496;932.2816;;;;
2020/04/24 14:16:09;;;;;;;2.4;1.7;;;;;;;24.51;23.70215;932.3031;;;;
2020/04/24 14:18:35;;;;;;;5.5;2;;;;;;;24.84;23.7793;932.2929;;;;
2020/04/24 14:21:02;;;;;;;5;2;;;;;;;25.28;23.31836;932.2977;;;;
2020/04/24 14:23:28;;;;;;;3.6;1.9;;;;;;;25.5;23.81348;932.2726;;;;
2020/04/24 14:26:03;;;;;;;4.7;2.1;;;;;;;25.2;24.91992;932.2722;;;;
2020/04/24 14:28:32;;;;;;;6.5;2.1;;;;;;;24.96;25.20117;932.2678;;;;
2020/04/24 14:31:01;;;;;;;3.8;1.9;;;;;;;25.09;26.07031;932.2668;;;;
2020/04/24 14:33:28;;;;;;;5.4;2.1;;;;;;;25.13;26.94531;932.2473;;;;
2020/04/24 14:35:57;;;;;;;4.3;1.8;;;;;;;25.35;25.67188;932.2736;;;;
2020/04/24 14:38:30;;;;;;;6.1;1.9;;;;;;;25.37;24.96484;932.23;;;;
2020/04/24 14:41:08;;;;;;;5.7;1.9;;;;;;;24.8;25.91211;932.1909;;;;
2020/04/24 14:43:37;;;;;;;3.6;1.9;;;;;;;24.74;29.18652;932.1926;;;;
2020/04/24 14:46:02;;;;;;;4.8;2.1;;;;;;;23.69;29.4707;932.1919;;;;
2020/04/24 14:48:30;;;;;;;3.9;2;;;;;;;23.63;27.17285;932.2332;;;;
2020/04/24 14:50:56;;;;;;;4.7;2.2;;;;;;;23.62;26.71387;932.0945;;;;
2020/04/24 14:53:27;;;;;;;6.6;2.2;;;;;;;23.83;27.00879;932.0278;;;;
2020/04/24 14:55:53;;;;;;;3.6;1.9;;;;;;;23.36;24.32324;932.0159;;;;
2020/04/24 14:58:26;;;;;;;6.4;2.2;;;;;;;23.48;26.44629;932.062;;;;
2020/04/24 15:01:01;;;;;;;7.1;2;;;;;;;23.74;24.79102;932.0267;;;;
2020/04/24 15:03:30;;;;;;;4.6;2;;;;;;;24;23.98145;932.0305;;;;
2020/04/24 15:05:56;;;;;;;3.7;1.8;;;;;;;24.37;23.68359;931.9637;;;;
2020/04/24 15:08:32;;;;;;;4.5;2;;;;;;;24.24;23.2998;931.9911;;;;
2020/04/24 15:10:59;;;;;;;2.9;1.9;;;;;;;23.77;24.75684;932.0277;;;;
2020/04/24 15:13:31;;;;;;;11.7;2.5;;;;;;;23.75;24.60352;932.0129;;;;
2020/04/24 15:18:23;;;;;;;6.7;1.8;;;;;;;24.04;25.1377;931.9903;;;;
2020/04/24 15:20:51;;;;;;;2.9;1.8;;;;;;;23.97;24.81641;931.9408;;;;
2020/04/24 15:23:17;;;;;;;5.4;2;;;;;;;23.64;24.72656;931.9799;;;;
2020/04/24 15:25:53;;;;;;;4;1.9;;;;;;;23.27;25.78711;932.0014;;;;
2020/04/24 15:28:23;;;;;;;3.5;1.8;;;;;;;23.39;26.47656;931.9738;;;;
2020/04/24 15:30:48;;;;;;;4.5;2;;;;;;;23.14;26.0625;931.9461;;;;
2020/04/24 15:33:17;;;;;;;5.4;2;;;;;;;22.82;26.43066;931.9504;;;;
2020/04/24 15:35:51;;;;;;;4.8;2.3;;;;;;;22.75;26.05078;931.973;;;;
2020/04/24 15:38:23;;;;;;;4.3;2.1;;;;;;;22.54;25.97949;931.9623;;;;
2020/04/24 15:40:52;;;;;;;5.2;2.4;;;;;;;22.55;26.0625;931.9269;;;;